sensor_id;sensor_type;location;lat;lon;timestamp;temperature;humidity
80234;DHT22;69712;42.142;24.766;2023-06-14T00:00:39;22.30;62.00
80234;DHT22;69712;42.142;24.766;2023-06-14T00:03:09;22.20;62.30
80234;DHT22;69712;42.142;24.766;2023-06-14T00:05:38;22.00;63.00
80234;DHT22;69712;42.142;24.766;2023-06-14T00:08:09;22.20;62.50
80234;DHT22;69712;42.142;24.766;2023-06-14T00:10:35;22.20;62.80
80234;DHT22;69712;42.142;24.766;2023-06-14T00:13:02;22.00;63.20
80234;DHT22;69712;42.142;24.766;2023-06-14T00:15:30;22.00;63.20
80234;DHT22;69712;42.142;24.766;2023-06-14T00:17:59;22.00;63.30
80234;DHT22;69712;42.142;24.766;2023-06-14T00:20:30;21.90;63.70
80234;DHT22;69712;42.142;24.766;2023-06-14T00:22:58;21.80;64.20
80234;DHT22;69712;42.142;24.766;2023-06-14T00:25:24;21.90;63.90
80234;DHT22;69712;42.142;24.766;2023-06-14T00:27:54;21.80;64.40
80234;DHT22;69712;42.142;24.766;2023-06-14T00:30:20;21.80;64.00
80234;DHT22;69712;42.142;24.766;2023-06-14T00:32:46;22.00;63.70
80234;DHT22;69712;42.142;24.766;2023-06-14T00:35:12;22.20;63.20
80234;DHT22;69712;42.142;24.766;2023-06-14T00:37:39;21.90;63.80
80234;DHT22;69712;42.142;24.766;2023-06-14T00:40:05;22.00;64.10
80234;DHT22;69712;42.142;24.766;2023-06-14T00:42:31;21.80;64.80
80234;DHT22;69712;42.142;24.766;2023-06-14T00:44:57;21.80;64.60
80234;DHT22;69712;42.142;24.766;2023-06-14T00:47:23;21.80;64.80
80234;DHT22;69712;42.142;24.766;2023-06-14T00:49:53;21.60;65.30
80234;DHT22;69712;42.142;24.766;2023-06-14T00:52:19;21.70;65.20
80234;DHT22;69712;42.142;24.766;2023-06-14T00:54:46;21.80;65.30
80234;DHT22;69712;42.142;24.766;2023-06-14T00:57:12;21.60;65.60
80234;DHT22;69712;42.142;24.766;2023-06-14T00:59:43;21.70;65.70
80234;DHT22;69712;42.142;24.766;2023-06-14T01:02:09;21.80;65.70
80234;DHT22;69712;42.142;24.766;2023-06-14T01:04:35;21.80;65.40
80234;DHT22;69712;42.142;24.766;2023-06-14T01:07:05;21.70;65.60
80234;DHT22;69712;42.142;24.766;2023-06-14T01:13:20;21.70;65.40
80234;DHT22;69712;42.142;24.766;2023-06-14T01:15:14;21.80;65.00
80234;DHT22;69712;42.142;24.766;2023-06-14T01:17:41;21.80;65.00
80234;DHT22;69712;42.142;24.766;2023-06-14T01:20:12;21.80;65.00
80234;DHT22;69712;42.142;24.766;2023-06-14T01:23:06;21.80;65.00
80234;DHT22;69712;42.142;24.766;2023-06-14T01:25:32;21.80;65.20
80234;DHT22;69712;42.142;24.766;2023-06-14T01:28:03;21.70;65.50
80234;DHT22;69712;42.142;24.766;2023-06-14T01:30:30;21.70;65.70
80234;DHT22;69712;42.142;24.766;2023-06-14T01:32:58;21.80;65.70
80234;DHT22;69712;42.142;24.766;2023-06-14T01:35:25;21.70;65.60
80234;DHT22;69712;42.142;24.766;2023-06-14T01:37:51;21.70;65.40
80234;DHT22;69712;42.142;24.766;2023-06-14T01:40:18;21.70;65.20
80234;DHT22;69712;42.142;24.766;2023-06-14T01:42:46;21.50;66.00
80234;DHT22;69712;42.142;24.766;2023-06-14T01:45:14;21.60;66.10
80234;DHT22;69712;42.142;24.766;2023-06-14T01:47:40;21.50;66.20
80234;DHT22;69712;42.142;24.766;2023-06-14T01:50:06;21.10;67.30
80234;DHT22;69712;42.142;24.766;2023-06-14T01:52:32;21.40;66.60
80234;DHT22;69712;42.142;24.766;2023-06-14T01:54:58;21.40;66.50
80234;DHT22;69712;42.142;24.766;2023-06-14T01:57:25;21.40;66.40
80234;DHT22;69712;42.142;24.766;2023-06-14T01:59:52;21.40;66.30
80234;DHT22;69712;42.142;24.766;2023-06-14T02:02:18;21.40;66.40
80234;DHT22;69712;42.142;24.766;2023-06-14T02:04:44;21.50;66.20
80234;DHT22;69712;42.142;24.766;2023-06-14T02:07:13;21.40;66.60
80234;DHT22;69712;42.142;24.766;2023-06-14T02:09:41;21.50;66.10
80234;DHT22;69712;42.142;24.766;2023-06-14T02:12:07;21.60;66.00
80234;DHT22;69712;42.142;24.766;2023-06-14T02:14:33;21.70;66.70
80234;DHT22;69712;42.142;24.766;2023-06-14T02:16:59;21.60;65.90
80234;DHT22;69712;42.142;24.766;2023-06-14T02:19:26;21.50;65.90
80234;DHT22;69712;42.142;24.766;2023-06-14T02:21:52;21.50;66.00
80234;DHT22;69712;42.142;24.766;2023-06-14T02:24:18;21.40;66.50
80234;DHT22;69712;42.142;24.766;2023-06-14T02:26:44;21.30;66.40
80234;DHT22;69712;42.142;24.766;2023-06-14T02:29:09;21.40;66.40
80234;DHT22;69712;42.142;24.766;2023-06-14T02:31:38;21.20;67.00
80234;DHT22;69712;42.142;24.766;2023-06-14T02:34:03;21.40;66.50
80234;DHT22;69712;42.142;24.766;2023-06-14T02:36:30;21.40;66.10
80234;DHT22;69712;42.142;24.766;2023-06-14T02:38:56;21.40;65.80
80234;DHT22;69712;42.142;24.766;2023-06-14T02:41:26;21.40;66.00
80234;DHT22;69712;42.142;24.766;2023-06-14T02:43:52;21.50;66.00
80234;DHT22;69712;42.142;24.766;2023-06-14T02:46:18;21.60;65.20
80234;DHT22;69712;42.142;24.766;2023-06-14T02:48:44;21.60;65.10
80234;DHT22;69712;42.142;24.766;2023-06-14T02:51:10;21.70;64.80
80234;DHT22;69712;42.142;24.766;2023-06-14T02:53:38;21.70;64.60
80234;DHT22;69712;42.142;24.766;2023-06-14T02:56:04;21.60;64.40
80234;DHT22;69712;42.142;24.766;2023-06-14T02:58:30;21.60;64.40
80234;DHT22;69712;42.142;24.766;2023-06-14T03:00:55;21.70;64.10
80234;DHT22;69712;42.142;24.766;2023-06-14T03:03:22;21.60;64.20
80234;DHT22;69712;42.142;24.766;2023-06-14T03:05:50;21.60;64.00
80234;DHT22;69712;42.142;24.766;2023-06-14T03:08:17;21.60;64.00
80234;DHT22;69712;42.142;24.766;2023-06-14T03:10:48;21.50;64.10
80234;DHT22;69712;42.142;24.766;2023-06-14T03:13:14;21.50;64.20
80234;DHT22;69712;42.142;24.766;2023-06-14T03:15:42;21.20;65.00
80234;DHT22;69712;42.142;24.766;2023-06-14T03:18:09;21.50;64.80
80234;DHT22;69712;42.142;24.766;2023-06-14T03:20:35;21.40;64.80
80234;DHT22;69712;42.142;24.766;2023-06-14T03:23:02;21.40;64.60
80234;DHT22;69712;42.142;24.766;2023-06-14T03:25:28;21.50;64.60
80234;DHT22;69712;42.142;24.766;2023-06-14T03:27:55;21.40;65.10
80234;DHT22;69712;42.142;24.766;2023-06-14T03:30:21;21.40;65.10
80234;DHT22;69712;42.142;24.766;2023-06-14T03:32:47;21.20;65.20
80234;DHT22;69712;42.142;24.766;2023-06-14T03:35:13;21.20;65.40
80234;DHT22;69712;42.142;24.766;2023-06-14T03:37:45;21.30;64.70
80234;DHT22;69712;42.142;24.766;2023-06-14T03:40:15;21.30;64.60
80234;DHT22;69712;42.142;24.766;2023-06-14T03:42:41;21.40;64.30
80234;DHT22;69712;42.142;24.766;2023-06-14T03:45:07;21.40;64.80
80234;DHT22;69712;42.142;24.766;2023-06-14T03:47:34;21.50;64.30
80234;DHT22;69712;42.142;24.766;2023-06-14T03:50:00;21.50;64.70
80234;DHT22;69712;42.142;24.766;2023-06-14T03:52:26;21.60;63.60
80234;DHT22;69712;42.142;24.766;2023-06-14T03:54:52;21.60;63.30
80234;DHT22;69712;42.142;24.766;2023-06-14T03:57:18;21.70;63.30
80234;DHT22;69712;42.142;24.766;2023-06-14T03:59:45;21.70;63.30
80234;DHT22;69712;42.142;24.766;2023-06-14T04:02:12;21.80;63.40
80234;DHT22;69712;42.142;24.766;2023-06-14T04:04:41;21.80;63.10
80234;DHT22;69712;42.142;24.766;2023-06-14T04:07:10;21.90;62.70
80234;DHT22;69712;42.142;24.766;2023-06-14T04:09:37;21.90;62.20
80234;DHT22;69712;42.142;24.766;2023-06-14T04:12:03;21.80;62.20
80234;DHT22;69712;42.142;24.766;2023-06-14T04:14:29;21.90;61.60
80234;DHT22;69712;42.142;24.766;2023-06-14T04:16:56;21.80;61.60
80234;DHT22;69712;42.142;24.766;2023-06-14T04:19:25;22.00;61.60
80234;DHT22;69712;42.142;24.766;2023-06-14T04:21:50;21.90;61.50
80234;DHT22;69712;42.142;24.766;2023-06-14T04:24:16;21.90;61.30
80234;DHT22;69712;42.142;24.766;2023-06-14T04:26:43;22.00;61.10
80234;DHT22;69712;42.142;24.766;2023-06-14T04:29:14;22.00;61.00
80234;DHT22;69712;42.142;24.766;2023-06-14T04:31:42;22.00;60.80
80234;DHT22;69712;42.142;24.766;2023-06-14T04:34:08;22.10;62.00
80234;DHT22;69712;42.142;24.766;2023-06-14T04:36:34;22.10;61.00
80234;DHT22;69712;42.142;24.766;2023-06-14T04:39:03;22.20;60.90
80234;DHT22;69712;42.142;24.766;2023-06-14T04:41:30;22.10;60.80
80234;DHT22;69712;42.142;24.766;2023-06-14T04:43:56;22.20;60.70
80234;DHT22;69712;42.142;24.766;2023-06-14T04:46:24;22.40;60.70
80234;DHT22;69712;42.142;24.766;2023-06-14T04:48:49;22.50;60.30
80234;DHT22;69712;42.142;24.766;2023-06-14T04:51:16;22.50;60.30
80234;DHT22;69712;42.142;24.766;2023-06-14T04:53:42;22.40;60.10
80234;DHT22;69712;42.142;24.766;2023-06-14T04:56:09;22.50;60.00
80234;DHT22;69712;42.142;24.766;2023-06-14T04:58:35;22.50;59.70
80234;DHT22;69712;42.142;24.766;2023-06-14T05:01:01;22.60;59.50
80234;DHT22;69712;42.142;24.766;2023-06-14T05:03:28;22.70;59.20
80234;DHT22;69712;42.142;24.766;2023-06-14T05:05:56;22.70;59.40
80234;DHT22;69712;42.142;24.766;2023-06-14T05:08:22;22.80;59.50
80234;DHT22;69712;42.142;24.766;2023-06-14T05:10:51;22.60;59.70
80234;DHT22;69712;42.142;24.766;2023-06-14T05:13:17;22.80;59.70
80234;DHT22;69712;42.142;24.766;2023-06-14T05:15:43;22.90;59.70
80234;DHT22;69712;42.142;24.766;2023-06-14T05:18:09;23.10;59.70
80234;DHT22;69712;42.142;24.766;2023-06-14T05:20:35;22.90;59.80
80234;DHT22;69712;42.142;24.766;2023-06-14T05:23:03;23.00;59.80
80234;DHT22;69712;42.142;24.766;2023-06-14T05:25:28;23.10;59.20
80234;DHT22;69712;42.142;24.766;2023-06-14T05:27:54;23.20;58.80
80234;DHT22;69712;42.142;24.766;2023-06-14T05:30:20;23.20;58.80
80234;DHT22;69712;42.142;24.766;2023-06-14T05:32:46;23.20;58.90
80234;DHT22;69712;42.142;24.766;2023-06-14T05:35:11;23.30;59.20
80234;DHT22;69712;42.142;24.766;2023-06-14T05:37:37;23.20;59.50
80234;DHT22;69712;42.142;24.766;2023-06-14T05:40:04;23.20;59.90
80234;DHT22;69712;42.142;24.766;2023-06-14T05:42:34;23.20;59.70
80234;DHT22;69712;42.142;24.766;2023-06-14T05:45:00;23.20;59.70
80234;DHT22;69712;42.142;24.766;2023-06-14T05:47:26;23.20;59.90
80234;DHT22;69712;42.142;24.766;2023-06-14T05:49:53;23.30;59.80
80234;DHT22;69712;42.142;24.766;2023-06-14T05:52:19;23.40;59.30
80234;DHT22;69712;42.142;24.766;2023-06-14T05:54:46;23.50;59.40
80234;DHT22;69712;42.142;24.766;2023-06-14T05:57:12;23.50;59.40
80234;DHT22;69712;42.142;24.766;2023-06-14T05:59:37;23.30;59.80
80234;DHT22;69712;42.142;24.766;2023-06-14T06:02:03;23.40;59.60
80234;DHT22;69712;42.142;24.766;2023-06-14T06:04:29;23.50;59.40
80234;DHT22;69712;42.142;24.766;2023-06-14T06:06:55;23.50;59.00
80234;DHT22;69712;42.142;24.766;2023-06-14T06:09:20;23.50;59.60
80234;DHT22;69712;42.142;24.766;2023-06-14T06:11:46;23.70;58.50
80234;DHT22;69712;42.142;24.766;2023-06-14T06:14:12;23.80;58.00
80234;DHT22;69712;42.142;24.766;2023-06-14T06:16:37;24.00;57.90
80234;DHT22;69712;42.142;24.766;2023-06-14T06:19:03;24.20;57.30
80234;DHT22;69712;42.142;24.766;2023-06-14T06:21:29;24.40;57.00
80234;DHT22;69712;42.142;24.766;2023-06-14T06:23:54;24.20;56.60
80234;DHT22;69712;42.142;24.766;2023-06-14T06:26:22;24.40;56.50
80234;DHT22;69712;42.142;24.766;2023-06-14T06:28:48;24.70;56.00
80234;DHT22;69712;42.142;24.766;2023-06-14T06:31:14;24.90;55.00
80234;DHT22;69712;42.142;24.766;2023-06-14T06:33:40;25.20;54.20
80234;DHT22;69712;42.142;24.766;2023-06-14T06:36:06;25.60;52.60
80234;DHT22;69712;42.142;24.766;2023-06-14T06:38:32;26.10;52.60
80234;DHT22;69712;42.142;24.766;2023-06-14T06:40:57;27.10;50.80
80234;DHT22;69712;42.142;24.766;2023-06-14T06:43:23;27.80;49.20
80234;DHT22;69712;42.142;24.766;2023-06-14T06:45:49;28.30;48.00
80234;DHT22;69712;42.142;24.766;2023-06-14T06:48:15;28.50;46.10
80234;DHT22;69712;42.142;24.766;2023-06-14T06:50:41;28.60;45.80
80234;DHT22;69712;42.142;24.766;2023-06-14T06:53:07;28.60;45.70
80234;DHT22;69712;42.142;24.766;2023-06-14T06:55:33;28.50;45.50
80234;DHT22;69712;42.142;24.766;2023-06-14T06:57:58;28.60;45.80
80234;DHT22;69712;42.142;24.766;2023-06-14T07:00:25;28.80;45.30
80234;DHT22;69712;42.142;24.766;2023-06-14T07:02:51;28.80;45.20
80234;DHT22;69712;42.142;24.766;2023-06-14T07:05:17;28.70;45.20
80234;DHT22;69712;42.142;24.766;2023-06-14T07:07:43;27.80;46.30
80234;DHT22;69712;42.142;24.766;2023-06-14T07:10:09;27.70;47.00
80234;DHT22;69712;42.142;24.766;2023-06-14T07:12:35;27.80;47.10
80234;DHT22;69712;42.142;24.766;2023-06-14T07:15:08;27.50;47.10
80234;DHT22;69712;42.142;24.766;2023-06-14T07:17:34;27.60;47.00
80234;DHT22;69712;42.142;24.766;2023-06-14T07:20:02;27.60;47.40
80234;DHT22;69712;42.142;24.766;2023-06-14T07:22:33;27.60;48.00
80234;DHT22;69712;42.142;24.766;2023-06-14T07:24:59;27.20;48.00
80234;DHT22;69712;42.142;24.766;2023-06-14T07:27:24;27.10;48.90
80234;DHT22;69712;42.142;24.766;2023-06-14T07:29:50;26.90;48.80
80234;DHT22;69712;42.142;24.766;2023-06-14T07:32:16;26.80;49.20
80234;DHT22;69712;42.142;24.766;2023-06-14T07:34:42;26.60;49.60
80234;DHT22;69712;42.142;24.766;2023-06-14T07:37:07;26.80;50.20
80234;DHT22;69712;42.142;24.766;2023-06-14T07:39:33;26.30;50.90
80234;DHT22;69712;42.142;24.766;2023-06-14T07:41:59;26.20;51.40
80234;DHT22;69712;42.142;24.766;2023-06-14T07:44:24;26.00;51.80
80234;DHT22;69712;42.142;24.766;2023-06-14T07:46:50;26.10;51.80
80234;DHT22;69712;42.142;24.766;2023-06-14T07:49:16;26.40;50.80
80234;DHT22;69712;42.142;24.766;2023-06-14T07:51:42;26.80;50.10
80234;DHT22;69712;42.142;24.766;2023-06-14T07:54:09;27.00;48.50
80234;DHT22;69712;42.142;24.766;2023-06-14T07:56:35;27.00;48.20
80234;DHT22;69712;42.142;24.766;2023-06-14T07:59:01;27.50;47.60
80234;DHT22;69712;42.142;24.766;2023-06-14T08:01:27;27.90;47.40
80234;DHT22;69712;42.142;24.766;2023-06-14T08:03:53;28.10;45.70
80234;DHT22;69712;42.142;24.766;2023-06-14T08:06:19;28.20;45.00
80234;DHT22;69712;42.142;24.766;2023-06-14T08:08:45;28.30;45.00
80234;DHT22;69712;42.142;24.766;2023-06-14T08:11:11;28.30;45.00
80234;DHT22;69712;42.142;24.766;2023-06-14T08:13:36;28.40;44.80
80234;DHT22;69712;42.142;24.766;2023-06-14T08:16:02;28.80;43.20
80234;DHT22;69712;42.142;24.766;2023-06-14T08:18:30;28.10;44.00
80234;DHT22;69712;42.142;24.766;2023-06-14T08:20:55;28.40;43.80
80234;DHT22;69712;42.142;24.766;2023-06-14T08:23:23;28.50;43.80
80234;DHT22;69712;42.142;24.766;2023-06-14T08:25:48;28.60;43.30
80234;DHT22;69712;42.142;24.766;2023-06-14T08:28:15;28.90;42.90
80234;DHT22;69712;42.142;24.766;2023-06-14T08:30:42;29.00;42.90
80234;DHT22;69712;42.142;24.766;2023-06-14T08:33:08;29.30;43.40
80234;DHT22;69712;42.142;24.766;2023-06-14T08:35:33;29.40;42.10
80234;DHT22;69712;42.142;24.766;2023-06-14T08:38:02;29.80;42.00
80234;DHT22;69712;42.142;24.766;2023-06-14T08:40:30;29.80;40.50
80234;DHT22;69712;42.142;24.766;2023-06-14T08:42:56;29.00;41.90
80234;DHT22;69712;42.142;24.766;2023-06-14T08:45:23;29.10;43.10
80234;DHT22;69712;42.142;24.766;2023-06-14T08:47:50;28.50;42.80
80234;DHT22;69712;42.142;24.766;2023-06-14T08:50:21;28.30;43.50
80234;DHT22;69712;42.142;24.766;2023-06-14T08:53:00;29.00;43.10
80234;DHT22;69712;42.142;24.766;2023-06-14T08:55:28;29.60;41.80
80234;DHT22;69712;42.142;24.766;2023-06-14T08:57:56;30.10;40.50
80234;DHT22;69712;42.142;24.766;2023-06-14T09:00:25;29.50;40.40
80234;DHT22;69712;42.142;24.766;2023-06-14T09:02:52;29.80;41.00
80234;DHT22;69712;42.142;24.766;2023-06-14T09:05:26;29.50;42.30
80234;DHT22;69712;42.142;24.766;2023-06-14T09:07:53;29.90;41.20
80234;DHT22;69712;42.142;24.766;2023-06-14T09:10:22;30.00;40.60
80234;DHT22;69712;42.142;24.766;2023-06-14T09:12:48;30.20;40.50
80234;DHT22;69712;42.142;24.766;2023-06-14T09:15:13;30.00;40.60
80234;DHT22;69712;42.142;24.766;2023-06-14T09:17:40;29.90;40.60
80234;DHT22;69712;42.142;24.766;2023-06-14T09:20:07;30.10;40.20
80234;DHT22;69712;42.142;24.766;2023-06-14T09:22:40;30.00;41.20
80234;DHT22;69712;42.142;24.766;2023-06-14T09:25:07;29.90;40.80
80234;DHT22;69712;42.142;24.766;2023-06-14T09:27:33;30.00;40.60
80234;DHT22;69712;42.142;24.766;2023-06-14T09:29:59;30.00;40.10
80234;DHT22;69712;42.142;24.766;2023-06-14T09:32:25;30.00;39.90
80234;DHT22;69712;42.142;24.766;2023-06-14T09:34:51;30.00;40.00
80234;DHT22;69712;42.142;24.766;2023-06-14T09:37:30;29.80;41.00
80234;DHT22;69712;42.142;24.766;2023-06-14T09:39:56;29.40;40.90
80234;DHT22;69712;42.142;24.766;2023-06-14T09:42:22;29.10;41.90
80234;DHT22;69712;42.142;24.766;2023-06-14T09:44:52;29.10;42.10
80234;DHT22;69712;42.142;24.766;2023-06-14T09:47:19;29.20;42.00
80234;DHT22;69712;42.142;24.766;2023-06-14T09:49:45;29.20;41.90
80234;DHT22;69712;42.142;24.766;2023-06-14T09:52:20;29.40;42.00
80234;DHT22;69712;42.142;24.766;2023-06-14T09:54:47;29.00;41.90
80234;DHT22;69712;42.142;24.766;2023-06-14T09:57:16;29.00;41.40
80234;DHT22;69712;42.142;24.766;2023-06-14T09:59:46;29.00;41.90
80234;DHT22;69712;42.142;24.766;2023-06-14T10:04:57;28.60;42.40
80234;DHT22;69712;42.142;24.766;2023-06-14T10:07:26;28.00;44.80
80234;DHT22;69712;42.142;24.766;2023-06-14T10:09:55;27.60;44.80
80234;DHT22;69712;42.142;24.766;2023-06-14T10:12:21;27.40;44.90
80234;DHT22;69712;42.142;24.766;2023-06-14T10:14:51;27.30;45.10
80234;DHT22;69712;42.142;24.766;2023-06-14T10:17:46;27.30;45.80
80234;DHT22;69712;42.142;24.766;2023-06-14T10:23:12;27.40;46.90
80234;DHT22;69712;42.142;24.766;2023-06-14T10:25:38;27.30;49.10
80234;DHT22;69712;42.142;24.766;2023-06-14T10:28:17;27.50;48.90
80234;DHT22;69712;42.142;24.766;2023-06-14T10:31:06;28.50;46.00
80234;DHT22;69712;42.142;24.766;2023-06-14T10:33:56;28.00;44.70
80234;DHT22;69712;42.142;24.766;2023-06-14T10:36:28;29.60;43.40
80234;DHT22;69712;42.142;24.766;2023-06-14T10:39:17;29.40;41.30
80234;DHT22;69712;42.142;24.766;2023-06-14T10:41:53;29.00;41.80
80234;DHT22;69712;42.142;24.766;2023-06-14T10:46:49;27.10;46.10
80234;DHT22;69712;42.142;24.766;2023-06-14T10:49:45;27.20;47.30
80234;DHT22;69712;42.142;24.766;2023-06-14T10:52:15;26.90;48.10
80234;DHT22;69712;42.142;24.766;2023-06-14T10:55:18;26.50;49.10
80234;DHT22;69712;42.142;24.766;2023-06-14T10:57:49;26.80;48.60
80234;DHT22;69712;42.142;24.766;2023-06-14T11:00:22;27.30;48.00
80234;DHT22;69712;42.142;24.766;2023-06-14T11:05:28;28.80;43.80
80234;DHT22;69712;42.142;24.766;2023-06-14T11:10:38;30.40;41.00
80234;DHT22;69712;42.142;24.766;2023-06-14T11:13:04;30.10;39.70
80234;DHT22;69712;42.142;24.766;2023-06-14T11:15:32;28.90;42.20
80234;DHT22;69712;42.142;24.766;2023-06-14T11:18:00;29.00;42.70
80234;DHT22;69712;42.142;24.766;2023-06-14T11:20:29;29.40;42.00
80234;DHT22;69712;42.142;24.766;2023-06-14T11:22:55;29.40;41.70
80234;DHT22;69712;42.142;24.766;2023-06-14T11:25:21;29.40;40.80
80234;DHT22;69712;42.142;24.766;2023-06-14T11:27:49;29.90;41.20
80234;DHT22;69712;42.142;24.766;2023-06-14T11:30:16;30.20;40.60
80234;DHT22;69712;42.142;24.766;2023-06-14T11:32:42;30.30;39.10
80234;DHT22;69712;42.142;24.766;2023-06-14T11:35:08;31.40;37.70
80234;DHT22;69712;42.142;24.766;2023-06-14T11:37:36;32.20;36.20
80234;DHT22;69712;42.142;24.766;2023-06-14T11:40:03;33.40;34.80
80234;DHT22;69712;42.142;24.766;2023-06-14T11:42:34;34.60;32.60
80234;DHT22;69712;42.142;24.766;2023-06-14T11:45:00;35.10;32.90
80234;DHT22;69712;42.142;24.766;2023-06-14T11:47:34;36.70;30.30
80234;DHT22;69712;42.142;24.766;2023-06-14T11:50:01;36.80;30.50
80234;DHT22;69712;42.142;24.766;2023-06-14T11:52:27;36.60;29.90
80234;DHT22;69712;42.142;24.766;2023-06-14T11:54:53;36.00;30.70
80234;DHT22;69712;42.142;24.766;2023-06-14T11:57:19;34.10;33.00
80234;DHT22;69712;42.142;24.766;2023-06-14T11:59:45;32.40;35.10
80234;DHT22;69712;42.142;24.766;2023-06-14T12:02:18;31.70;36.90
80234;DHT22;69712;42.142;24.766;2023-06-14T12:04:47;32.50;35.30
80234;DHT22;69712;42.142;24.766;2023-06-14T12:07:17;33.90;33.40
80234;DHT22;69712;42.142;24.766;2023-06-14T12:12:25;35.40;31.00
80234;DHT22;69712;42.142;24.766;2023-06-14T12:14:51;33.60;33.40
80234;DHT22;69712;42.142;24.766;2023-06-14T12:17:18;33.80;34.70
80234;DHT22;69712;42.142;24.766;2023-06-14T12:19:45;33.10;35.80
80234;DHT22;69712;42.142;24.766;2023-06-14T12:22:15;31.60;36.60
80234;DHT22;69712;42.142;24.766;2023-06-14T12:24:44;31.00;38.70
80234;DHT22;69712;42.142;24.766;2023-06-14T12:27:10;30.00;40.40
80234;DHT22;69712;42.142;24.766;2023-06-14T12:29:44;29.70;40.60
80234;DHT22;69712;42.142;24.766;2023-06-14T12:32:10;29.50;41.50
80234;DHT22;69712;42.142;24.766;2023-06-14T12:34:36;29.30;41.30
80234;DHT22;69712;42.142;24.766;2023-06-14T12:37:02;29.10;41.60
80234;DHT22;69712;42.142;24.766;2023-06-14T12:39:30;30.00;39.40
80234;DHT22;69712;42.142;24.766;2023-06-14T12:41:59;29.70;38.90
80234;DHT22;69712;42.142;24.766;2023-06-14T12:44:25;30.10;40.70
80234;DHT22;69712;42.142;24.766;2023-06-14T12:46:51;30.90;39.10
80234;DHT22;69712;42.142;24.766;2023-06-14T12:49:18;31.90;37.60
80234;DHT22;69712;42.142;24.766;2023-06-14T12:51:45;32.70;36.60
80234;DHT22;69712;42.142;24.766;2023-06-14T12:54:11;33.30;35.00
80234;DHT22;69712;42.142;24.766;2023-06-14T12:56:37;34.30;34.80
80234;DHT22;69712;42.142;24.766;2023-06-14T12:59:04;33.10;34.90
80234;DHT22;69712;42.142;24.766;2023-06-14T13:01:31;32.10;35.60
80234;DHT22;69712;42.142;24.766;2023-06-14T13:03:57;31.20;38.10
80234;DHT22;69712;42.142;24.766;2023-06-14T13:06:23;30.80;36.50
80234;DHT22;69712;42.142;24.766;2023-06-14T13:08:49;31.50;36.10
80234;DHT22;69712;42.142;24.766;2023-06-14T13:11:15;31.20;36.20
80234;DHT22;69712;42.142;24.766;2023-06-14T13:13:41;31.50;35.60
80234;DHT22;69712;42.142;24.766;2023-06-14T13:16:07;31.70;35.90
80234;DHT22;69712;42.142;24.766;2023-06-14T13:18:33;32.90;34.90
80234;DHT22;69712;42.142;24.766;2023-06-14T13:20:59;33.00;34.10
80234;DHT22;69712;42.142;24.766;2023-06-14T13:23:24;34.00;31.90
80234;DHT22;69712;42.142;24.766;2023-06-14T13:25:50;32.30;34.90
80234;DHT22;69712;42.142;24.766;2023-06-14T13:28:16;32.10;35.10
80234;DHT22;69712;42.142;24.766;2023-06-14T13:30:42;31.20;36.90
80234;DHT22;69712;42.142;24.766;2023-06-14T13:33:08;29.30;40.50
80234;DHT22;69712;42.142;24.766;2023-06-14T13:35:34;28.80;42.50
80234;DHT22;69712;42.142;24.766;2023-06-14T13:38:00;29.50;41.70
80234;DHT22;69712;42.142;24.766;2023-06-14T13:40:26;28.60;42.80
80234;DHT22;69712;42.142;24.766;2023-06-14T13:42:52;28.50;44.00
80234;DHT22;69712;42.142;24.766;2023-06-14T13:45:17;28.00;45.70
80234;DHT22;69712;42.142;24.766;2023-06-14T13:47:43;27.40;46.10
80234;DHT22;69712;42.142;24.766;2023-06-14T13:50:10;27.60;46.50
80234;DHT22;69712;42.142;24.766;2023-06-14T13:52:35;27.70;46.00
80234;DHT22;69712;42.142;24.766;2023-06-14T13:55:02;27.60;45.40
80234;DHT22;69712;42.142;24.766;2023-06-14T13:57:28;27.50;45.70
80234;DHT22;69712;42.142;24.766;2023-06-14T13:59:53;27.40;45.30
80234;DHT22;69712;42.142;24.766;2023-06-14T14:02:21;27.20;45.70
80234;DHT22;69712;42.142;24.766;2023-06-14T14:04:46;27.20;46.70
80234;DHT22;69712;42.142;24.766;2023-06-14T14:07:18;27.30;45.00
80234;DHT22;69712;42.142;24.766;2023-06-14T14:09:45;27.40;46.00
80234;DHT22;69712;42.142;24.766;2023-06-14T14:12:11;27.30;44.80
80234;DHT22;69712;42.142;24.766;2023-06-14T14:14:37;27.50;44.30
80234;DHT22;69712;42.142;24.766;2023-06-14T14:17:03;27.70;44.50
80234;DHT22;69712;42.142;24.766;2023-06-14T14:19:30;27.80;44.10
80234;DHT22;69712;42.142;24.766;2023-06-14T14:21:55;27.80;43.50
80234;DHT22;69712;42.142;24.766;2023-06-14T14:24:21;27.80;44.30
80234;DHT22;69712;42.142;24.766;2023-06-14T14:26:47;27.80;43.80
80234;DHT22;69712;42.142;24.766;2023-06-14T14:29:14;27.90;43.00
80234;DHT22;69712;42.142;24.766;2023-06-14T14:31:40;27.90;43.80
80234;DHT22;69712;42.142;24.766;2023-06-14T14:34:06;27.90;43.50
80234;DHT22;69712;42.142;24.766;2023-06-14T14:36:31;27.40;42.50
80234;DHT22;69712;42.142;24.766;2023-06-14T14:38:59;27.40;43.20
80234;DHT22;69712;42.142;24.766;2023-06-14T14:41:24;27.20;43.20
80234;DHT22;69712;42.142;24.766;2023-06-14T14:43:50;27.20;43.40
80234;DHT22;69712;42.142;24.766;2023-06-14T14:46:16;27.10;43.90
80234;DHT22;69712;42.142;24.766;2023-06-14T14:48:42;27.30;43.70
80234;DHT22;69712;42.142;24.766;2023-06-14T14:51:08;27.30;42.50
80234;DHT22;69712;42.142;24.766;2023-06-14T14:53:33;26.90;43.90
80234;DHT22;69712;42.142;24.766;2023-06-14T14:55:59;26.50;45.30
80234;DHT22;69712;42.142;24.766;2023-06-14T14:58:25;26.70;45.00
80234;DHT22;69712;42.142;24.766;2023-06-14T15:00:51;26.90;45.20
80234;DHT22;69712;42.142;24.766;2023-06-14T15:03:17;26.90;45.00
80234;DHT22;69712;42.142;24.766;2023-06-14T15:05:42;27.10;44.80
80234;DHT22;69712;42.142;24.766;2023-06-14T15:08:08;27.00;44.60
80234;DHT22;69712;42.142;24.766;2023-06-14T15:10:38;27.20;44.70
80234;DHT22;69712;42.142;24.766;2023-06-14T15:13:06;27.20;45.10
80234;DHT22;69712;42.142;24.766;2023-06-14T15:15:32;27.30;44.00
80234;DHT22;69712;42.142;24.766;2023-06-14T15:17:59;27.30;43.90
80234;DHT22;69712;42.142;24.766;2023-06-14T15:20:25;27.20;44.10
80234;DHT22;69712;42.142;24.766;2023-06-14T15:22:51;27.20;44.40
80234;DHT22;69712;42.142;24.766;2023-06-14T15:25:18;27.10;44.90
80234;DHT22;69712;42.142;24.766;2023-06-14T15:27:45;27.30;44.70
80234;DHT22;69712;42.142;24.766;2023-06-14T15:30:11;27.20;45.50
80234;DHT22;69712;42.142;24.766;2023-06-14T15:32:37;27.00;46.70
80234;DHT22;69712;42.142;24.766;2023-06-14T15:35:02;26.60;47.30